Archival Weather

Republic

Farmingdale, New York (KFRG)

Report from: Sunday, January 28, 2024 4:38 AM EST
Current time: Monday, June 17, 2024 2:41 AM EDT

Current weather – Weather history – Daily summaries
Weather forecast

Temperature4.4°C (39.9°F)
Wind chill1.7°C (35.1°F)
Dew point3.3°C (37.9°F)
Winds 6 kts (3.1 m/s, 6.9 mph) East (100°)
Visibility7 mi. (11.3 km)
Clouds Ceiling: Broken clouds 600 ft. (183 m)
Broken clouds 5,000 ft. (1,524 m)
Overcast 7,500 ft. (2,286 m)
Altimeter30.05 in.Hg (1018 mB)
Precipitiation0.02 in. (1 mm)
Relative humidity93 %
Density altitude-1,317 ft. (-402 m)
Remarks Fully automated report
Special weather observation
Automated weather observing station without precipitation discriminator
Flight conditions Instrument Meteorological Conditions
Raw dataSPUS70 KWBC 280942 SPECI KFRG 280938Z AUTO 10006KT 7SM BKN006 BKN050 OVC075 04/03 A3005 RMK AO1 P0002 T00440033
An error has occurred. This application may no longer respond until reloaded. Reload 🗙